YYY weather

Mont Joli Airport
Mont-Joli, Quebec, Canada

Public forecast

Using degrees Celsius for public forecast. Weather courtesy of forecast.io.

Current aviation weather report (METAR) for Mont Joli Airport

Retrieved 2020/04/04 11:00 UTC (45 minutes ago):

CYYY 041100Z VRB02KT 15SM OVC045 M00/M01 A3016 RMK SC8 SLP218

Aviation forecast (TAF) for Mont Joli Airport

Retrieved 2020/04/04 08:00 UTC (4 hours ago):

TAF CYYY 040738Z 0408/0420 VRB03KT P6SM OVC040 TEMPO 0408/0420 BKN020 OVC040 RMK NXT FCST BY 041400Z